Time;durP1;ratioP1;P1;durP2;ratioP2;P2;SDS_P1;SDS_P2;PMS_P1;PMS_P2;Temp;Humidity;BMP_temperature;BMP_pressure;BME280_temperature;BME280_humidity;BME280_pressure;Samples;Min_cycle;Max_cycle;Signal;HPM_P1;HPM_P2
2023/09/15 00:00:52;;;;;;;;;;;24.90;58.30;;;;;;5055478;28;19924;-60
2023/09/15 00:03:19;;;;;;;;;;;24.80;58.20;;;;;;5055189;28;19974;-60
2023/09/15 00:05:46;;;;;;;;;;;24.90;58.30;;;;;;5055363;28;19928;-60
2023/09/15 00:08:13;;;;;;;;;;;24.90;58.30;;;;;;5070711;28;19978;-60
2023/09/15 00:10:41;;;;;;;;;;;24.90;58.30;;;;;;5054713;28;19932;-60
2023/09/15 00:13:08;;;;;;;;;;;24.80;58.30;;;;;;5053756;28;19924;-60
2023/09/15 00:15:35;;;;;;;;;;;24.90;58.30;;;;;;5054648;28;19925;-60
2023/09/15 00:18:03;;;;;;;;;;;24.80;58.20;;;;;;5054934;28;20376;-60
2023/09/15 00:20:30;;;;;;;;;;;24.80;58.30;;;;;;5054804;28;19995;-60
2023/09/15 00:22:58;;;;;;;;;;;24.80;58.30;;;;;;5054900;28;19970;-60
2023/09/15 00:25:27;;;;;;;;;;;24.80;58.30;;;;;;5054157;28;19925;-60
2023/09/15 00:27:55;;;;;;;;;;;24.80;58.30;;;;;;5055198;28;19979;-60
2023/09/15 00:30:23;;;;;;;;;;;24.80;58.30;;;;;;5054910;28;19932;-60
2023/09/15 00:32:50;;;;;;;;;;;24.80;58.30;;;;;;5054323;28;19982;-60
2023/09/15 00:35:19;;;;;;;;;;;24.80;58.30;;;;;;5054428;28;20377;-60
2023/09/15 00:37:47;;;;;;;;;;;24.80;58.40;;;;;;5053928;28;19978;-60
2023/09/15 00:40:14;;;;;;;;;;;24.80;58.40;;;;;;5054906;28;19928;-60
2023/09/15 00:42:42;;;;;;;;;;;24.80;58.30;;;;;;5054781;28;19924;-60
2023/09/15 00:45:14;;;;;;;;;;;24.80;58.30;;;;;;5054573;28;19925;-60
2023/09/15 00:47:43;;;;;;;;;;;24.80;58.30;;;;;;5054192;28;19928;-60
2023/09/15 00:50:14;;;;;;;;;;;24.80;58.30;;;;;;5054559;28;19929;-62
2023/09/15 00:52:43;;;;;;;;;;;24.80;58.30;;;;;;5054309;28;19998;-60
2023/09/15 00:55:13;;;;;;;;;;;24.80;58.20;;;;;;5054033;28;19925;-60
2023/09/15 00:57:40;;;;;;;;;;;24.80;58.20;;;;;;5054202;28;19924;-60
2023/09/15 01:00:11;;;;;;;;;;;24.80;58.20;;;;;;5054595;28;19925;-60
2023/09/15 01:02:42;;;;;;;;;;;24.80;58.20;;;;;;5053971;28;19931;-61
2023/09/15 01:05:11;;;;;;;;;;;24.80;58.10;;;;;;5053059;28;20305;-60
2023/09/15 01:07:38;;;;;;;;;;;24.80;58.10;;;;;;5054280;28;19932;-60
2023/09/15 01:10:07;;;;;;;;;;;24.80;58.10;;;;;;5054042;28;19925;-60
2023/09/15 01:12:34;;;;;;;;;;;24.80;58.00;;;;;;5053820;28;20296;-60
2023/09/15 01:15:02;;;;;;;;;;;24.80;58.00;;;;;;5053861;28;19929;-60
2023/09/15 01:17:37;;;;;;;;;;;24.80;58.00;;;;;;5053790;28;19928;-60
2023/09/15 01:20:15;;;;;;;;;;;24.80;58.10;;;;;;5053891;28;19979;-60
2023/09/15 01:23:02;;;;;;;;;;;24.80;58.10;;;;;;5053581;28;19925;-61
2023/09/15 01:25:51;;;;;;;;;;;24.80;58.10;;;;;;5053764;28;19925;-61
2023/09/15 01:28:25;;;;;;;;;;;24.80;58.10;;;;;;5053908;28;19975;-61
2023/09/15 01:30:52;;;;;;;;;;;24.80;58.20;;;;;;5053787;28;20324;-60
2023/09/15 01:33:19;;;;;;;;;;;24.80;58.20;;;;;;5052171;28;19930;-60
2023/09/15 01:35:46;;;;;;;;;;;24.80;58.20;;;;;;5053647;28;19964;-60
2023/09/15 01:38:13;;;;;;;;;;;24.80;58.20;;;;;;5053601;28;19976;-60
2023/09/15 01:40:40;;;;;;;;;;;24.70;58.10;;;;;;5053304;28;19951;-60
2023/09/15 01:43:07;;;;;;;;;;;24.70;58.20;;;;;;5053266;28;20405;-60
2023/09/15 01:45:36;;;;;;;;;;;24.70;58.20;;;;;;5052558;28;21430;-60
2023/09/15 01:48:04;;;;;;;;;;;24.70;58.20;;;;;;5053516;28;19948;-60
2023/09/15 01:50:32;;;;;;;;;;;24.70;58.10;;;;;;5053327;28;20293;-60
2023/09/15 01:52:59;;;;;;;;;;;24.70;58.10;;;;;;5053199;28;20335;-60
2023/09/15 01:55:26;;;;;;;;;;;24.70;58.70;;;;;;5053255;28;20023;-60
2023/09/15 01:57:53;;;;;;;;;;;24.70;58.20;;;;;;5053320;28;19948;-60
2023/09/15 02:00:20;;;;;;;;;;;24.70;58.20;;;;;;5053215;28;19925;-60
2023/09/15 02:02:47;;;;;;;;;;;24.70;58.20;;;;;;5053521;28;20670;-60
2023/09/15 02:05:20;;;;;;;;;;;24.80;58.10;;;;;;5053164;28;19931;-60
2023/09/15 02:07:47;;;;;;;;;;;24.80;58.10;;;;;;5053638;28;19964;-60
2023/09/15 02:10:14;;;;;;;;;;;24.80;58.10;;;;;;5052222;28;19925;-60
2023/09/15 02:12:41;;;;;;;;;;;24.80;58.10;;;;;;5052897;28;19928;-60
2023/09/15 02:15:09;;;;;;;;;;;24.80;58.00;;;;;;5053009;28;20023;-60
2023/09/15 02:17:35;;;;;;;;;;;24.80;58.00;;;;;;5053022;28;19959;-60
2023/09/15 02:20:08;;;;;;;;;;;24.80;57.90;;;;;;5053109;28;19932;-60
2023/09/15 02:22:35;;;;;;;;;;;24.80;58.00;;;;;;5052861;28;20020;-60
2023/09/15 02:25:02;;;;;;;;;;;24.70;57.90;;;;;;5053463;28;19967;-60
2023/09/15 02:27:30;;;;;;;;;;;24.70;58.00;;;;;;5052967;28;20352;-60
2023/09/15 02:29:57;;;;;;;;;;;24.80;58.00;;;;;;5052975;28;20381;-60
2023/09/15 02:32:24;;;;;;;;;;;24.70;57.90;;;;;;5053423;28;19925;-60
2023/09/15 02:34:51;;;;;;;;;;;24.70;58.00;;;;;;5053029;28;20137;-60
2023/09/15 02:37:17;;;;;;;;;;;24.70;58.00;;;;;;5052923;28;20019;-60
2023/09/15 02:39:44;;;;;;;;;;;24.70;58.00;;;;;;5052987;28;19925;-60
2023/09/15 02:42:12;;;;;;;;;;;24.70;58.00;;;;;;5052707;28;20385;-60
2023/09/15 02:44:39;;;;;;;;;;;24.70;58.00;;;;;;5052884;28;20369;-60
2023/09/15 02:47:06;;;;;;;;;;;24.70;58.00;;;;;;5053271;28;19975;-60
2023/09/15 02:49:33;;;;;;;;;;;24.70;58.00;;;;;;5052787;28;19924;-60
2023/09/15 02:52:01;;;;;;;;;;;24.70;58.10;;;;;;5052788;28;20289;-60
2023/09/15 02:54:28;;;;;;;;;;;24.70;58.10;;;;;;5052630;28;19971;-60
2023/09/15 02:56:55;;;;;;;;;;;24.70;58.10;;;;;;5052627;28;20369;-60
2023/09/15 02:59:22;;;;;;;;;;;24.70;58.00;;;;;;5053535;28;19960;-60
2023/09/15 03:01:50;;;;;;;;;;;24.70;58.10;;;;;;5056200;28;19967;-60
2023/09/15 03:04:19;;;;;;;;;;;24.70;58.10;;;;;;5056298;28;19970;-60
2023/09/15 03:06:47;;;;;;;;;;;24.70;58.10;;;;;;5056277;28;19936;-60
2023/09/15 03:09:14;;;;;;;;;;;24.70;58.10;;;;;;5056027;28;20444;-60
2023/09/15 03:11:41;;;;;;;;;;;24.70;58.00;;;;;;5056378;28;19929;-60
2023/09/15 03:14:09;;;;;;;;;;;24.70;57.90;;;;;;5056118;28;19979;-60
2023/09/15 03:16:39;;;;;;;;;;;24.70;57.90;;;;;;5056233;28;20299;-60
2023/09/15 03:19:06;;;;;;;;;;;24.70;57.90;;;;;;5056109;28;20363;-60
2023/09/15 03:21:33;;;;;;;;;;;24.70;57.90;;;;;;5056233;28;19925;-60
2023/09/15 03:24:01;;;;;;;;;;;24.70;57.80;;;;;;5055905;28;19968;-60
2023/09/15 03:26:28;;;;;;;;;;;24.70;57.70;;;;;;5055563;28;20384;-60
2023/09/15 03:28:55;;;;;;;;;;;24.70;57.70;;;;;;5056100;28;20301;-60
2023/09/15 03:31:22;;;;;;;;;;;24.70;57.70;;;;;;5055504;28;20392;-60
2023/09/15 03:33:49;;;;;;;;;;;24.70;57.70;;;;;;5055846;28;20007;-60
2023/09/15 03:36:17;;;;;;;;;;;24.70;57.70;;;;;;5055609;28;19925;-60
2023/09/15 03:38:44;;;;;;;;;;;24.70;57.70;;;;;;5055454;28;19932;-60
2023/09/15 03:41:12;;;;;;;;;;;24.70;57.70;;;;;;5055904;28;19936;-60
2023/09/15 03:43:39;;;;;;;;;;;24.70;57.80;;;;;;5069508;28;20396;-60
2023/09/15 03:46:06;;;;;;;;;;;24.70;57.80;;;;;;5035654;28;19933;-60
2023/09/15 03:48:35;;;;;;;;;;;24.70;57.90;;;;;;5035646;28;19925;-59
2023/09/15 03:51:02;;;;;;;;;;;24.70;57.90;;;;;;5035460;28;19971;-59
2023/09/15 03:53:29;;;;;;;;;;;24.70;57.80;;;;;;5043334;28;19970;-60
2023/09/15 03:55:56;;;;;;;;;;;24.70;57.90;;;;;;5054725;28;19979;-60
2023/09/15 03:58:23;;;;;;;;;;;24.70;57.90;;;;;;5038436;28;20400;-60
2023/09/15 04:00:51;;;;;;;;;;;24.60;57.90;;;;;;5050269;28;20027;-60
2023/09/15 04:03:20;;;;;;;;;;;24.60;58.20;;;;;;5054925;28;19956;-60
2023/09/15 04:05:48;;;;;;;;;;;24.60;57.80;;;;;;5055086;28;19931;-60
2023/09/15 04:08:15;;;;;;;;;;;24.70;57.90;;;;;;5046331;28;19929;-60
2023/09/15 04:10:42;;;;;;;;;;;24.60;57.80;;;;;;5051877;28;19924;-60
2023/09/15 04:13:09;;;;;;;;;;;24.70;57.90;;;;;;5054638;28;19932;-61
2023/09/15 04:15:36;;;;;;;;;;;24.60;57.90;;;;;;5054949;28;20007;-60
2023/09/15 04:18:07;;;;;;;;;;;24.70;58.00;;;;;;5054301;28;20320;-60
2023/09/15 04:20:35;;;;;;;;;;;24.60;57.90;;;;;;5051396;28;19971;-60
2023/09/15 04:23:12;;;;;;;;;;;24.60;57.80;;;;;;5048350;28;19952;-60
2023/09/15 04:25:39;;;;;;;;;;;24.70;57.80;;;;;;5043068;28;19937;-60
2023/09/15 04:28:06;;;;;;;;;;;24.60;57.70;;;;;;5044330;28;19924;-60
2023/09/15 04:30:33;;;;;;;;;;;24.60;57.60;;;;;;5045281;28;19925;-60
2023/09/15 04:33:00;;;;;;;;;;;24.70;57.60;;;;;;5043180;28;19969;-60
2023/09/15 04:35:28;;;;;;;;;;;24.70;57.50;;;;;;5042529;28;19929;-60
2023/09/15 04:37:55;;;;;;;;;;;24.60;57.60;;;;;;5044607;28;19994;-60
2023/09/15 04:40:22;;;;;;;;;;;24.60;57.60;;;;;;5053711;28;20359;-60
2023/09/15 04:42:49;;;;;;;;;;;24.50;57.60;;;;;;5054425;28;19929;-60
2023/09/15 04:45:16;;;;;;;;;;;24.40;57.80;;;;;;5054696;28;19924;-60
2023/09/15 04:47:43;;;;;;;;;;;24.10;57.80;;;;;;5054324;28;19931;-60
2023/09/15 04:50:11;;;;;;;;;;;23.90;56.60;;;;;;5069492;28;20007;-60
2023/09/15 04:52:37;;;;;;;;;;;23.60;55.20;;;;;;5047712;28;19964;-60
2023/09/15 04:55:05;;;;;;;;;;;23.40;53.40;;;;;;5043574;28;19925;-59
2023/09/15 04:57:33;;;;;;;;;;;23.10;52.50;;;;;;5044951;28;20278;-60
2023/09/15 05:00:11;;;;;;;;;;;22.80;51.90;;;;;;5042788;28;19929;-60
2023/09/15 05:02:42;;;;;;;;;;;22.50;52.70;;;;;;5053310;28;19925;-60
2023/09/15 05:05:10;;;;;;;;;;;22.20;52.70;;;;;;5053331;28;19978;-59
2023/09/15 05:07:37;;;;;;;;;;;21.80;51.60;;;;;;5052839;28;19929;-60
2023/09/15 05:10:05;;;;;;;;;;;21.50;51.60;;;;;;5050498;28;20019;-60
2023/09/15 05:12:32;;;;;;;;;;;21.20;51.70;;;;;;5051990;28;19982;-60
2023/09/15 05:14:59;;;;;;;;;;;20.90;52.30;;;;;;5051955;28;19925;-60
2023/09/15 05:17:26;;;;;;;;;;;20.70;53.30;;;;;;5048942;28;19925;-59
2023/09/15 05:19:55;;;;;;;;;;;20.50;52.00;;;;;;5051391;28;19979;-60
2023/09/15 05:22:22;;;;;;;;;;;20.30;54.00;;;;;;5048090;28;19933;-60
2023/09/15 05:24:49;;;;;;;;;;;20.10;52.80;;;;;;5043376;28;19933;-63
2023/09/15 05:27:18;;;;;;;;;;;20.00;53.70;;;;;;5040518;28;19932;-63
2023/09/15 05:29:45;;;;;;;;;;;19.90;52.20;;;;;;5045169;28;20452;-63
2023/09/15 05:32:12;;;;;;;;;;;19.70;53.70;;;;;;5041586;28;20397;-62
2023/09/15 05:34:39;;;;;;;;;;;19.70;53.60;;;;;;5040945;28;19932;-62
2023/09/15 05:37:07;;;;;;;;;;;19.60;52.90;;;;;;5040379;28;19960;-61
2023/09/15 05:39:34;;;;;;;;;;;19.60;52.70;;;;;;5041988;28;19963;-61
2023/09/15 05:42:02;;;;;;;;;;;19.50;53.10;;;;;;5044380;28;20019;-60
2023/09/15 05:44:29;;;;;;;;;;;19.50;53.00;;;;;;5043782;28;19925;-61
2023/09/15 05:46:56;;;;;;;;;;;19.40;52.90;;;;;;5043891;28;19925;-61
2023/09/15 05:49:23;;;;;;;;;;;19.40;53.20;;;;;;5045510;28;19925;-63
2023/09/15 05:51:50;;;;;;;;;;;19.30;53.80;;;;;;5043666;28;19999;-61
2023/09/15 05:54:18;;;;;;;;;;;19.30;54.20;;;;;;5043173;28;19937;-60
2023/09/15 05:56:45;;;;;;;;;;;19.30;54.30;;;;;;5044573;28;19929;-62
2023/09/15 05:59:12;;;;;;;;;;;19.20;53.60;;;;;;5041672;28;19963;-62
2023/09/15 06:01:46;;;;;;;;;;;19.20;53.10;;;;;;5046697;28;19925;-61
2023/09/15 06:04:14;;;;;;;;;;;19.20;54.30;;;;;;5043180;28;19932;-62
2023/09/15 06:06:41;;;;;;;;;;;19.10;53.70;;;;;;5041626;28;19937;-62
2023/09/15 06:09:09;;;;;;;;;;;19.10;53.60;;;;;;5042401;28;19977;-64
2023/09/15 06:11:36;;;;;;;;;;;19.10;54.00;;;;;;5038088;28;20370;-64
2023/09/15 06:14:03;;;;;;;;;;;19.10;53.60;;;;;;5044928;28;19944;-62
2023/09/15 06:16:34;;;;;;;;;;;19.10;53.20;;;;;;5044596;28;19925;-62
2023/09/15 06:19:02;;;;;;;;;;;19.00;53.50;;;;;;5044107;28;19936;-63
2023/09/15 06:21:29;;;;;;;;;;;19.00;53.60;;;;;;5045990;28;19936;-63
2023/09/15 06:23:57;;;;;;;;;;;19.00;53.50;;;;;;5044338;28;20388;-61
2023/09/15 06:26:24;;;;;;;;;;;19.00;54.60;;;;;;5043635;28;20028;-63
2023/09/15 06:28:51;;;;;;;;;;;19.00;53.70;;;;;;5043030;28;20373;-61
2023/09/15 06:31:23;;;;;;;;;;;19.00;55.00;;;;;;5040592;28;20036;-61
2023/09/15 06:33:50;;;;;;;;;;;19.00;55.10;;;;;;5047943;28;19925;-63
2023/09/15 06:36:17;;;;;;;;;;;19.00;55.80;;;;;;5046216;28;19994;-61
2023/09/15 06:38:44;;;;;;;;;;;19.00;55.20;;;;;;5046476;28;19935;-64
2023/09/15 06:41:12;;;;;;;;;;;18.90;57.60;;;;;;5050144;28;19929;-63
2023/09/15 06:43:39;;;;;;;;;;;18.90;54.50;;;;;;5045605;28;19929;-61
2023/09/15 06:46:06;;;;;;;;;;;18.90;55.70;;;;;;5045363;28;19931;-63
2023/09/15 06:48:33;;;;;;;;;;;18.90;56.60;;;;;;5044254;28;19929;-63
2023/09/15 06:51:00;;;;;;;;;;;18.90;56.90;;;;;;5046392;28;19933;-62
2023/09/15 06:53:27;;;;;;;;;;;18.80;54.10;;;;;;5046396;28;20423;-61
2023/09/15 06:55:55;;;;;;;;;;;18.80;53.60;;;;;;5047509;28;19933;-61
2023/09/15 06:58:23;;;;;;;;;;;18.80;53.60;;;;;;5048209;28;19933;-62
2023/09/15 07:00:50;;;;;;;;;;;18.70;53.80;;;;;;5046829;28;19931;-63
2023/09/15 07:03:18;;;;;;;;;;;18.70;54.20;;;;;;5044502;28;20232;-63
2023/09/15 07:05:45;;;;;;;;;;;18.60;55.10;;;;;;5026878;28;20406;-64
2023/09/15 07:08:12;;;;;;;;;;;18.60;53.50;;;;;;5048641;28;20035;-66
2023/09/15 07:10:39;;;;;;;;;;;18.50;54.90;;;;;;5042361;28;20256;-64
2023/09/15 07:13:06;;;;;;;;;;;18.50;56.20;;;;;;5048760;28;19925;-63
2023/09/15 07:15:35;;;;;;;;;;;18.50;56.20;;;;;;5050039;28;19994;-65
2023/09/15 07:18:04;;;;;;;;;;;18.40;57.00;;;;;;5047954;28;19951;-64
2023/09/15 07:20:31;;;;;;;;;;;18.40;58.60;;;;;;5048431;28;19964;-64
2023/09/15 07:22:58;;;;;;;;;;;18.40;57.30;;;;;;5045304;28;19990;-63
2023/09/15 07:25:25;;;;;;;;;;;18.40;57.30;;;;;;5044082;28;20067;-63
2023/09/15 07:27:52;;;;;;;;;;;18.40;55.20;;;;;;5044993;28;19925;-63
2023/09/15 07:30:19;;;;;;;;;;;18.40;56.10;;;;;;5063880;28;19932;-64
2023/09/15 07:32:46;;;;;;;;;;;18.50;56.40;;;;;;5047346;28;19929;-64
2023/09/15 07:35:14;;;;;;;;;;;18.50;58.70;;;;;;5042951;28;19932;-64
2023/09/15 07:37:42;;;;;;;;;;;18.40;57.80;;;;;;5056575;28;20008;-66
2023/09/15 07:40:10;;;;;;;;;;;18.50;56.60;;;;;;5041871;28;20028;-64
2023/09/15 07:42:37;;;;;;;;;;;18.50;57.80;;;;;;5045378;28;19978;-63
2023/09/15 07:45:04;;;;;;;;;;;18.40;58.40;;;;;;5041059;28;20032;-64
2023/09/15 07:47:33;;;;;;;;;;;18.40;59.50;;;;;;5043633;28;19929;-64
2023/09/15 07:50:00;;;;;;;;;;;18.40;59.60;;;;;;5041061;28;19929;-62
2023/09/15 07:52:29;;;;;;;;;;;18.40;58.30;;;;;;5045523;28;19931;-63
2023/09/15 07:54:56;;;;;;;;;;;18.40;57.70;;;;;;5059816;28;20975;-65
2023/09/15 07:57:24;;;;;;;;;;;18.40;60.50;;;;;;5042246;28;19972;-67
2023/09/15 07:59:51;;;;;;;;;;;18.40;60.90;;;;;;5042972;28;19932;-67
2023/09/15 08:02:20;;;;;;;;;;;18.40;60.50;;;;;;5042455;28;19932;-64
2023/09/15 08:04:48;;;;;;;;;;;18.40;61.40;;;;;;5046316;28;19972;-65
2023/09/15 08:07:15;;;;;;;;;;;18.40;61.20;;;;;;5044032;28;20340;-65
2023/09/15 08:09:42;;;;;;;;;;;18.50;60.80;;;;;;5045598;28;20309;-66
2023/09/15 08:12:09;;;;;;;;;;;18.50;61.70;;;;;;5047457;28;20385;-64
2023/09/15 08:14:36;;;;;;;;;;;18.50;61.50;;;;;;5041167;28;20016;-64
2023/09/15 08:17:03;;;;;;;;;;;18.50;61.80;;;;;;5042126;28;19972;-64
2023/09/15 08:19:30;;;;;;;;;;;18.60;62.00;;;;;;5039957;28;19929;-63
2023/09/15 08:22:00;;;;;;;;;;;18.60;60.20;;;;;;5062369;28;20705;-63
2023/09/15 08:24:27;;;;;;;;;;;18.60;61.00;;;;;;5043304;28;20288;-63
2023/09/15 08:26:54;;;;;;;;;;;18.70;59.90;;;;;;5043624;28;20336;-64
2023/09/15 08:29:21;;;;;;;;;;;18.70;60.50;;;;;;5041816;28;19929;-61
2023/09/15 08:31:48;;;;;;;;;;;18.70;60.40;;;;;;5044034;28;19925;-63
2023/09/15 08:34:16;;;;;;;;;;;18.70;61.70;;;;;;5041511;28;19986;-63
2023/09/15 08:36:43;;;;;;;;;;;18.70;61.30;;;;;;5040314;28;19976;-64
2023/09/15 08:39:12;;;;;;;;;;;18.80;61.30;;;;;;5043499;28;20456;-65
2023/09/15 08:41:39;;;;;;;;;;;18.70;61.30;;;;;;5045165;28;19972;-62
2023/09/15 08:44:09;;;;;;;;;;;18.80;60.80;;;;;;5044331;28;19925;-62
2023/09/15 08:46:37;;;;;;;;;;;18.80;60.80;;;;;;5045059;28;19926;-63
2023/09/15 08:49:06;;;;;;;;;;;18.80;61.20;;;;;;5048570;28;19931;-64
2023/09/15 08:51:33;;;;;;;;;;;18.80;61.90;;;;;;5039551;28;20285;-62
2023/09/15 08:54:01;;;;;;;;;;;18.80;62.10;;;;;;5042279;28;19933;-63
2023/09/15 08:56:28;;;;;;;;;;;18.80;61.50;;;;;;5042766;28;20019;-64
2023/09/15 08:58:56;;;;;;;;;;;18.80;61.30;;;;;;5043025;28;20278;-63
2023/09/15 09:01:25;;;;;;;;;;;18.80;61.60;;;;;;5039269;28;19925;-62
2023/09/15 09:03:52;;;;;;;;;;;18.80;62.40;;;;;;5046740;28;20433;-62
2023/09/15 09:06:22;;;;;;;;;;;18.90;61.20;;;;;;5041686;28;19929;-62
2023/09/15 09:08:49;;;;;;;;;;;18.90;62.30;;;;;;5043993;28;19948;-62
2023/09/15 09:11:16;;;;;;;;;;;18.90;61.30;;;;;;5044315;28;19937;-61
2023/09/15 09:13:52;;;;;;;;;;;18.90;61.50;;;;;;5042141;28;20020;-62
2023/09/15 09:16:20;;;;;;;;;;;18.90;61.70;;;;;;5040692;28;20520;-61
2023/09/15 09:18:56;;;;;;;;;;;18.90;61.70;;;;;;5048529;28;19924;-63
2023/09/15 09:21:24;;;;;;;;;;;18.90;62.20;;;;;;5043254;28;19979;-62
2023/09/15 09:23:52;;;;;;;;;;;19.00;61.30;;;;;;5044515;28;19940;-63
2023/09/15 09:26:19;;;;;;;;;;;19.00;62.00;;;;;;5049082;28;19929;-63
2023/09/15 09:28:46;;;;;;;;;;;19.00;61.50;;;;;;5046434;28;19994;-63
2023/09/15 09:31:15;;;;;;;;;;;19.10;61.80;;;;;;5040714;28;19952;-63
2023/09/15 09:33:42;;;;;;;;;;;19.10;61.90;;;;;;5045907;28;19991;-62
2023/09/15 09:36:13;;;;;;;;;;;19.10;61.20;;;;;;5041134;28;19940;-62
2023/09/15 09:38:44;;;;;;;;;;;19.10;61.90;;;;;;5044998;28;19960;-63
2023/09/15 09:41:13;;;;;;;;;;;19.20;62.00;;;;;;5043770;28;20343;-61
2023/09/15 09:43:42;;;;;;;;;;;19.20;61.20;;;;;;5055245;28;19925;-61
2023/09/15 09:46:10;;;;;;;;;;;19.20;61.10;;;;;;5060960;28;19972;-61
2023/09/15 09:48:38;;;;;;;;;;;19.20;60.50;;;;;;5045168;28;20397;-61
2023/09/15 09:51:05;;;;;;;;;;;19.30;61.50;;;;;;5045478;28;20384;-60
2023/09/15 09:53:33;;;;;;;;;;;19.30;60.90;;;;;;5045663;28;20377;-63
2023/09/15 09:56:01;;;;;;;;;;;19.30;61.20;;;;;;5043361;28;19932;-62
2023/09/15 09:58:29;;;;;;;;;;;19.30;60.90;;;;;;5042947;28;19925;-61
2023/09/15 10:00:56;;;;;;;;;;;19.40;62.00;;;;;;5037271;28;19988;-62
2023/09/15 10:03:23;;;;;;;;;;;19.40;60.80;;;;;;5040355;28;20401;-61
2023/09/15 10:05:50;;;;;;;;;;;19.40;60.70;;;;;;5039851;28;19944;-61
2023/09/15 10:08:18;;;;;;;;;;;19.50;59.90;;;;;;5044251;28;19924;-62
2023/09/15 10:10:51;;;;;;;;;;;19.50;59.90;;;;;;5043979;28;20024;-62
2023/09/15 10:13:18;;;;;;;;;;;19.50;59.40;;;;;;5046271;28;20424;-61
2023/09/15 10:15:46;;;;;;;;;;;19.60;59.40;;;;;;5044394;28;19928;-60
2023/09/15 10:18:14;;;;;;;;;;;19.60;59.60;;;;;;5044837;28;19929;-61
2023/09/15 10:20:42;;;;;;;;;;;19.60;59.20;;;;;;5047515;28;19936;-62
2023/09/15 10:23:13;;;;;;;;;;;19.60;59.00;;;;;;5051714;28;20438;-62
2023/09/15 10:25:46;;;;;;;;;;;19.60;59.50;;;;;;5047851;28;19981;-60
2023/09/15 10:28:15;;;;;;;;;;;19.60;59.50;;;;;;5047987;28;19929;-60
2023/09/15 10:31:04;;;;;;;;;;;19.60;58.90;;;;;;5048452;28;20381;-60
2023/09/15 10:33:33;;;;;;;;;;;19.60;59.00;;;;;;5048408;28;19932;-60
2023/09/15 10:36:03;;;;;;;;;;;19.60;58.70;;;;;;5047021;28;20020;-61
2023/09/15 10:38:32;;;;;;;;;;;19.60;58.60;;;;;;5042727;28;19925;-61
2023/09/15 10:41:03;;;;;;;;;;;19.60;58.50;;;;;;5045274;28;19952;-60
2023/09/15 10:43:31;;;;;;;;;;;19.60;58.90;;;;;;5045830;28;19925;-61
2023/09/15 10:46:02;;;;;;;;;;;19.60;59.40;;;;;;5065801;28;19924;-61
2023/09/15 10:48:38;;;;;;;;;;;19.70;59.10;;;;;;5047036;28;19963;-61
2023/09/15 10:51:06;;;;;;;;;;;19.70;59.40;;;;;;5049608;28;19928;-61
2023/09/15 10:53:47;;;;;;;;;;;19.70;59.50;;;;;;5051823;28;19937;-62
2023/09/15 10:56:16;;;;;;;;;;;19.70;59.20;;;;;;5047649;28;20070;-61
2023/09/15 10:58:46;;;;;;;;;;;19.70;59.70;;;;;;5046362;28;20711;-61
2023/09/15 11:01:15;;;;;;;;;;;19.70;59.20;;;;;;5046949;28;19935;-61
2023/09/15 11:03:43;;;;;;;;;;;19.70;59.40;;;;;;5045746;28;20378;-62
2023/09/15 11:06:11;;;;;;;;;;;19.70;59.60;;;;;;5049884;28;20015;-62
2023/09/15 11:08:39;;;;;;;;;;;19.70;59.60;;;;;;5046952;28;19931;-62
2023/09/15 11:11:10;;;;;;;;;;;19.70;59.70;;;;;;5047079;28;19933;-62
2023/09/15 11:13:38;;;;;;;;;;;19.70;59.80;;;;;;5043722;28;20021;-62
2023/09/15 11:16:06;;;;;;;;;;;19.70;59.20;;;;;;5044265;28;19929;-65
2023/09/15 11:18:34;;;;;;;;;;;19.80;59.40;;;;;;5050281;28;19994;-64
2023/09/15 11:21:02;;;;;;;;;;;19.80;59.50;;;;;;5050570;28;20105;-63
2023/09/15 11:23:29;;;;;;;;;;;19.80;60.40;;;;;;5053071;28;19931;-62
2023/09/15 11:26:03;;;;;;;;;;;19.80;60.40;;;;;;5049806;28;19972;-62
2023/09/15 11:28:47;;;;;;;;;;;19.90;60.30;;;;;;5049907;28;19925;-63
2023/09/15 11:31:16;;;;;;;;;;;19.90;59.90;;;;;;5050771;28;19938;-62
2023/09/15 11:33:45;;;;;;;;;;;19.90;60.10;;;;;;5044106;28;19932;-62
2023/09/15 11:36:13;;;;;;;;;;;19.90;60.10;;;;;;5048461;28;19928;-64
2023/09/15 11:38:44;;;;;;;;;;;20.00;60.00;;;;;;5050209;28;19932;-62
2023/09/15 11:41:12;;;;;;;;;;;20.10;59.90;;;;;;5048913;28;20008;-63
2023/09/15 11:43:39;;;;;;;;;;;20.10;59.70;;;;;;5043209;28;20300;-63
2023/09/15 11:46:07;;;;;;;;;;;20.20;60.00;;;;;;5048548;28;20282;-62
2023/09/15 11:48:38;;;;;;;;;;;20.20;61.30;;;;;;5040931;28;19982;-63
2023/09/15 11:51:09;;;;;;;;;;;20.20;61.00;;;;;;5047689;28;19970;-62
2023/09/15 11:53:37;;;;;;;;;;;20.30;60.70;;;;;;5044392;28;19932;-60
2023/09/15 11:56:04;;;;;;;;;;;20.30;61.30;;;;;;5044979;28;20296;-61
2023/09/15 11:58:32;;;;;;;;;;;20.40;60.80;;;;;;5047361;28;19964;-62
2023/09/15 12:01:01;;;;;;;;;;;20.40;60.50;;;;;;5042515;28;19925;-60
2023/09/15 12:03:31;;;;;;;;;;;20.50;60.20;;;;;;5043739;28;19929;-61
2023/09/15 12:06:00;;;;;;;;;;;20.50;60.10;;;;;;5063111;28;19947;-60
2023/09/15 12:08:28;;;;;;;;;;;20.60;60.00;;;;;;5052568;28;19932;-59
2023/09/15 12:10:55;;;;;;;;;;;20.60;59.70;;;;;;5053303;28;19978;-59
2023/09/15 12:13:38;;;;;;;;;;;20.60;59.80;;;;;;5051931;28;19970;-60
2023/09/15 12:16:06;;;;;;;;;;;20.60;59.70;;;;;;5049631;28;19996;-60
2023/09/15 12:18:36;;;;;;;;;;;20.60;59.80;;;;;;5050336;28;19952;-60
2023/09/15 12:21:11;;;;;;;;;;;20.60;59.80;;;;;;5061409;28;19925;-60
2023/09/15 12:23:38;;;;;;;;;;;20.70;60.00;;;;;;5067174;28;20065;-60
2023/09/15 12:26:11;;;;;;;;;;;20.70;59.30;;;;;;5058217;28;19931;-60
2023/09/15 12:28:41;;;;;;;;;;;20.60;59.30;;;;;;5054042;28;19967;-60
2023/09/15 12:31:08;;;;;;;;;;;20.70;59.60;;;;;;5046826;28;20020;-59
2023/09/15 12:33:35;;;;;;;;;;;20.70;59.50;;;;;;5042528;28;20027;-60
2023/09/15 12:36:06;;;;;;;;;;;20.60;59.50;;;;;;5051429;28;19983;-60
2023/09/15 12:38:33;;;;;;;;;;;20.70;59.60;;;;;;5043419;28;20321;-60
2023/09/15 12:41:00;;;;;;;;;;;20.60;59.70;;;;;;5050617;28;19925;-60
2023/09/15 12:43:26;;;;;;;;;;;20.60;59.40;;;;;;5046875;28;19979;-59
2023/09/15 12:45:53;;;;;;;;;;;20.70;59.50;;;;;;5050654;28;19925;-59
2023/09/15 12:48:21;;;;;;;;;;;20.70;59.50;;;;;;5037144;28;19987;-59
2023/09/15 12:50:49;;;;;;;;;;;20.70;59.20;;;;;;5049650;28;19970;-60
2023/09/15 12:53:16;;;;;;;;;;;20.70;59.00;;;;;;5053541;28;20494;-59
2023/09/15 12:55:43;;;;;;;;;;;20.70;59.70;;;;;;5064254;28;19931;-59
2023/09/15 12:58:10;;;;;;;;;;;20.70;59.60;;;;;;5053533;28;20509;-60
2023/09/15 13:00:37;;;;;;;;;;;20.70;59.50;;;;;;5052638;28;19979;-60
2023/09/15 13:03:05;;;;;;;;;;;20.70;59.80;;;;;;5049341;28;19932;-60
2023/09/15 13:05:32;;;;;;;;;;;20.70;59.90;;;;;;5062320;28;19928;-60
2023/09/15 13:07:59;;;;;;;;;;;20.60;60.00;;;;;;5073481;28;19924;-60
2023/09/15 13:10:26;;;;;;;;;;;20.60;60.00;;;;;;5073200;28;20458;-59
2023/09/15 13:12:53;;;;;;;;;;;20.60;60.20;;;;;;5073527;28;20015;-59
2023/09/15 13:15:22;;;;;;;;;;;20.60;60.20;;;;;;5072605;28;19932;-60
2023/09/15 13:17:50;;;;;;;;;;;20.60;60.00;;;;;;5072662;28;20365;-60
2023/09/15 13:20:17;;;;;;;;;;;20.60;59.90;;;;;;5077239;28;19928;-60
2023/09/15 13:22:44;;;;;;;;;;;20.60;60.20;;;;;;5050980;28;19970;-60
2023/09/15 13:25:11;;;;;;;;;;;20.60;59.80;;;;;;5052601;28;19978;-60
2023/09/15 13:27:42;;;;;;;;;;;20.50;60.40;;;;;;5053022;28;19924;-61
2023/09/15 13:30:11;;;;;;;;;;;20.60;60.20;;;;;;5067431;28;19939;-60
2023/09/15 13:32:38;;;;;;;;;;;20.60;59.70;;;;;;5048747;28;19931;-60
2023/09/15 13:35:05;;;;;;;;;;;20.60;60.00;;;;;;5055571;28;19925;-60
2023/09/15 13:37:32;;;;;;;;;;;20.60;59.90;;;;;;5072476;28;20011;-60
2023/09/15 13:39:59;;;;;;;;;;;20.60;59.80;;;;;;5072875;28;20377;-60
2023/09/15 13:42:31;;;;;;;;;;;20.60;59.80;;;;;;5073039;28;19960;-60
2023/09/15 13:44:59;;;;;;;;;;;20.60;59.70;;;;;;5072370;28;19966;-60
2023/09/15 13:47:30;;;;;;;;;;;20.60;59.60;;;;;;5073250;28;19964;-60
2023/09/15 13:49:57;;;;;;;;;;;20.60;59.50;;;;;;5073102;28;20351;-60
2023/09/15 13:52:24;;;;;;;;;;;20.70;59.60;;;;;;5072713;28;20450;-60
2023/09/15 13:54:52;;;;;;;;;;;20.70;59.40;;;;;;5073335;28;19978;-60
2023/09/15 13:57:20;;;;;;;;;;;20.70;59.40;;;;;;5073252;28;20371;-60
2023/09/15 13:59:54;;;;;;;;;;;20.70;59.20;;;;;;5072713;28;19925;-60
2023/09/15 14:02:22;;;;;;;;;;;20.70;59.20;;;;;;5052667;28;19964;-60
2023/09/15 14:04:50;;;;;;;;;;;20.70;59.50;;;;;;5042939;28;19979;-60
2023/09/15 14:07:17;;;;;;;;;;;20.80;65.40;;;;;;5055318;28;19929;-60
2023/09/15 14:09:44;;;;;;;;;;;21.00;71.60;;;;;;5047163;28;20637;-60
2023/09/15 14:12:11;;;;;;;;;;;21.30;72.90;;;;;;5052841;28;19929;-60
2023/09/15 14:14:39;;;;;;;;;;;21.60;73.70;;;;;;5048719;28;20373;-60
2023/09/15 14:17:07;;;;;;;;;;;21.80;74.90;;;;;;5055577;28;19925;-64
2023/09/15 14:19:35;;;;;;;;;;;22.10;75.30;;;;;;5051014;28;19924;-61
2023/09/15 14:22:02;;;;;;;;;;;22.40;75.70;;;;;;5064193;28;19924;-61